Time;durP1;ratioP1;P1;durP2;ratioP2;P2;SDS_P1;SDS_P2;PMS_P1;PMS_P2;Temp;Humidity;BMP_temperature;BMP_pressure;BME280_temperature;BME280_humidity;BME280_pressure;Samples;Min_cycle;Max_cycle;Signal;HPM_P1;HPM_P2
2023/10/26 00:01:52;;;;;;;4.43;3.10;;;10.30;99.90;;;;;;15451726;23;20481;-80
2023/10/26 00:07:54;;;;;;;9.82;3.47;;;10.30;99.90;;;;;;15485329;23;20047;-80
2023/10/26 00:13:56;;;;;;;5.18;3.90;;;10.20;99.90;;;;;;15457118;23;20024;-80
2023/10/26 00:19:58;;;;;;;6.15;4.65;;;10.30;99.90;;;;;;15459638;23;20032;-80
2023/10/26 00:26:01;;;;;;;6.13;4.20;;;10.30;99.90;;;;;;15459874;23;20024;-80
2023/10/26 00:32:06;;;;;;;5.32;4.03;;;10.30;99.90;;;;;;15449908;23;20118;-80
2023/10/26 00:38:08;;;;;;;6.53;5.05;;;10.30;99.90;;;;;;15457170;22;20024;-80
2023/10/26 00:44:10;;;;;;;10.60;6.75;;;10.30;99.90;;;;;;15456760;23;20028;-81
2023/10/26 00:50:12;;;;;;;9.65;6.93;;;10.30;99.90;;;;;;15464432;23;20027;-80
2023/10/26 00:56:19;;;;;;;14.60;8.25;;;10.40;99.90;;;;;;15490150;23;20027;-80
2023/10/26 01:02:23;;;;;;;16.42;8.43;;;10.30;99.90;;;;;;15489805;23;20028;-81
2023/10/26 01:08:25;;;;;;;15.77;8.50;;;10.40;99.90;;;;;;15464349;23;20035;-81
2023/10/26 01:14:27;;;;;;;15.95;8.20;;;10.40;99.90;;;;;;15463433;23;20854;-81
2023/10/26 01:20:29;;;;;;;15.85;8.35;;;10.40;99.90;;;;;;15464802;23;20028;-81
2023/10/26 01:26:31;;;;;;;20.38;10.48;;;10.40;99.90;;;;;;15459073;23;20339;-81
2023/10/26 01:32:33;;;;;;;25.98;11.00;;;10.40;99.90;;;;;;15460199;23;20414;-81
2023/10/26 01:38:35;;;;;;;21.88;11.18;;;10.30;99.90;;;;;;15463140;23;20477;-80
2023/10/26 01:44:38;;;;;;;21.35;11.20;;;10.30;99.90;;;;;;15466587;23;20125;-80
2023/10/26 01:50:40;;;;;;;20.23;12.10;;;10.30;99.90;;;;;;15462891;23;20024;-81
2023/10/26 01:56:42;;;;;;;23.77;13.00;;;10.40;99.90;;;;;;15493318;23;20020;-81
2023/10/26 02:02:46;;;;;;;21.08;12.27;;;10.30;99.90;;;;;;15462810;23;20027;-81
2023/10/26 02:08:48;;;;;;;18.40;11.97;;;10.30;99.90;;;;;;15464161;23;20024;-81
2023/10/26 02:14:50;;;;;;;17.92;10.60;;;10.20;99.90;;;;;;15459562;23;20078;-80
2023/10/26 02:20:52;;;;;;;17.88;10.82;;;10.20;99.90;;;;;;15495092;23;20052;-80
2023/10/26 02:26:54;;;;;;;23.70;12.35;;;10.30;99.90;;;;;;15469120;23;20370;-80
2023/10/26 02:32:56;;;;;;;18.50;11.45;;;10.30;99.90;;;;;;15499229;23;20539;-79
2023/10/26 02:38:58;;;;;;;16.85;10.73;;;10.20;99.90;;;;;;15459153;23;20127;-80
2023/10/26 02:45:00;;;;;;;16.70;10.23;;;10.20;99.90;;;;;;15466946;23;20051;-80
2023/10/26 02:51:03;;;;;;;17.08;10.02;;;10.20;99.90;;;;;;15453025;23;20020;-80
2023/10/26 02:57:05;;;;;;;22.42;9.88;;;10.20;99.90;;;;;;15464647;23;20020;-80
2023/10/26 03:03:07;;;;;;;19.48;10.73;;;10.20;99.90;;;;;;15464231;23;20028;-80
2023/10/26 03:09:09;;;;;;;19.38;10.95;;;10.10;99.90;;;;;;15464426;23;20032;-80
2023/10/26 03:15:11;;;;;;;19.88;10.98;;;10.10;99.90;;;;;;15457570;23;20031;-79
2023/10/26 03:21:15;;;;;;;21.38;10.93;;;10.20;99.90;;;;;;15492342;23;20026;-79
2023/10/26 03:27:17;;;;;;;17.33;10.27;;;10.20;99.90;;;;;;15463900;23;20064;-80
2023/10/26 03:33:19;;;;;;;17.10;9.52;;;10.00;99.90;;;;;;15433504;23;20035;-80
2023/10/26 03:39:22;;;;;;;18.90;10.57;;;10.10;99.90;;;;;;15459156;23;20031;-81
2023/10/26 03:45:26;;;;;;;17.35;9.88;;;10.20;99.90;;;;;;15472669;23;20028;-80
2023/10/26 03:51:28;;;;;;;14.48;9.68;;;10.20;99.90;;;;;;15459659;23;20072;-80
2023/10/26 03:57:33;;;;;;;15.73;9.57;;;10.20;99.90;;;;;;15465840;23;20557;-80
2023/10/26 04:03:35;;;;;;;12.55;8.57;;;10.10;99.90;;;;;;15465802;23;20020;-80
2023/10/26 04:09:37;;;;;;;13.10;9.25;;;10.10;99.90;;;;;;15495685;23;20024;-80
2023/10/26 04:15:39;;;;;;;14.85;8.95;;;10.10;99.90;;;;;;15465793;23;20028;-80
2023/10/26 04:21:41;;;;;;;11.30;8.13;;;10.10;99.90;;;;;;15495739;23;20023;-80
2023/10/26 04:27:43;;;;;;;12.95;9.02;;;10.10;99.90;;;;;;15467006;23;20032;-80
2023/10/26 04:33:45;;;;;;;13.60;8.80;;;10.10;99.90;;;;;;15455663;23;20422;-80
2023/10/26 04:39:47;;;;;;;9.13;6.40;;;10.10;99.90;;;;;;15486833;23;20039;-80
2023/10/26 04:45:49;;;;;;;7.85;5.57;;;10.00;99.90;;;;;;15491459;23;20253;-80
2023/10/26 04:51:51;;;;;;;6.88;4.93;;;10.00;99.90;;;;;;15450248;23;20024;-79
2023/10/26 04:57:53;;;;;;;8.82;6.03;;;10.00;99.90;;;;;;15463463;23;20035;-79
2023/10/26 05:03:55;;;;;;;7.95;5.78;;;10.00;99.90;;;;;;15489775;23;20035;-80
2023/10/26 05:09:57;;;;;;;11.65;6.50;;;10.00;99.90;;;;;;15463572;23;20027;-80
2023/10/26 05:15:59;;;;;;;9.55;6.97;;;9.90;99.90;;;;;;15461741;23;20032;-79
2023/10/26 05:22:03;;;;;;;7.13;5.15;;;9.90;99.90;;;;;;15464541;23;20020;-79
2023/10/26 05:28:05;;;;;;;5.37;3.67;;;10.00;99.90;;;;;;15455812;23;20462;-80
2023/10/26 05:34:08;;;;;;;4.03;2.95;;;10.00;99.90;;;;;;15459226;23;20024;-80
2023/10/26 05:40:10;;;;;;;3.50;2.70;;;10.00;99.90;;;;;;15477631;23;20028;-79
2023/10/26 05:46:13;;;;;;;3.50;2.72;;;10.00;99.90;;;;;;15459683;23;20020;-79
2023/10/26 05:52:17;;;;;;;4.32;2.90;;;10.00;99.90;;;;;;15455206;23;20530;-79
2023/10/26 05:58:21;;;;;;;4.07;2.97;;;10.00;99.90;;;;;;15461257;23;20034;-80
2023/10/26 06:04:26;;;;;;;5.95;3.10;;;10.00;99.90;;;;;;15466744;23;20028;-80
2023/10/26 06:10:28;;;;;;;4.68;3.40;;;9.90;99.90;;;;;;15462218;23;20447;-80
2023/10/26 06:16:31;;;;;;;4.65;3.53;;;9.80;99.90;;;;;;15463076;23;20031;-79
2023/10/26 06:22:35;;;;;;;5.32;3.88;;;9.90;99.90;;;;;;15463151;23;20024;-80
2023/10/26 06:28:37;;;;;;;4.90;3.72;;;9.90;99.90;;;;;;15460520;23;20027;-80
2023/10/26 06:34:39;;;;;;;4.65;3.58;;;9.90;99.90;;;;;;15487626;23;20032;-79
2023/10/26 06:40:44;;;;;;;4.30;3.40;;;9.80;99.90;;;;;;15488729;23;20039;-79
2023/10/26 06:46:46;;;;;;;7.22;3.20;;;9.80;99.90;;;;;;15456968;23;20027;-79
2023/10/26 06:52:48;;;;;;;4.07;3.08;;;9.80;99.90;;;;;;15459218;23;20442;-79
2023/10/26 06:58:50;;;;;;;3.78;3.10;;;9.80;99.90;;;;;;15457679;23;20032;-79
2023/10/26 07:04:52;;;;;;;4.45;3.45;;;9.80;99.90;;;;;;15488172;23;20035;-79
2023/10/26 07:10:55;;;;;;;4.03;3.13;;;9.80;99.90;;;;;;15457334;23;20048;-79
2023/10/26 07:16:57;;;;;;;4.43;3.15;;;9.80;99.90;;;;;;15458671;23;20024;-79
2023/10/26 07:22:59;;;;;;;5.30;3.90;;;9.70;99.90;;;;;;15458189;23;20027;-79
2023/10/26 07:29:01;;;;;;;6.05;3.97;;;9.80;99.90;;;;;;15454162;23;20022;-79
2023/10/26 07:35:09;;;;;;;5.35;4.18;;;9.70;99.90;;;;;;15457035;23;20020;-79
2023/10/26 07:41:11;;;;;;;4.55;3.78;;;9.70;99.90;;;;;;15461768;23;20036;-79
2023/10/26 07:47:13;;;;;;;5.38;3.85;;;9.70;99.90;;;;;;15456326;23;20447;-79
2023/10/26 07:53:15;;;;;;;5.60;4.00;;;9.70;99.90;;;;;;15448958;23;20028;-79
2023/10/26 07:59:17;;;;;;;5.72;4.20;;;9.70;99.90;;;;;;15456668;23;20477;-78
2023/10/26 08:05:19;;;;;;;6.22;3.95;;;9.80;99.90;;;;;;15456168;23;20024;-79
2023/10/26 08:11:30;;;;;;;5.75;4.03;;;9.80;99.90;;;;;;15493438;23;20047;-79
2023/10/26 08:17:35;;;;;;;4.35;3.50;;;9.80;99.90;;;;;;15466158;23;20060;-79
2023/10/26 08:23:41;;;;;;;6.80;3.88;;;9.80;99.90;;;;;;15453179;23;20024;-79
2023/10/26 08:29:43;;;;;;;6.00;4.18;;;9.90;99.90;;;;;;15459582;23;20581;-79
2023/10/26 08:36:08;;;;;;;5.75;4.75;;;9.90;99.90;;;;;;15485234;23;20024;-79
2023/10/26 08:42:10;;;;;;;11.88;4.43;;;9.90;99.90;;;;;;15462336;23;20068;-79
2023/10/26 08:48:17;;;;;;;6.82;4.35;;;9.90;99.90;;;;;;15472173;23;20023;-79
2023/10/26 08:54:20;;;;;;;5.75;4.28;;;9.90;99.90;;;;;;15494411;23;20028;-79
2023/10/26 09:00:22;;;;;;;5.05;3.97;;;9.90;99.90;;;;;;15469514;23;20572;-80
2023/10/26 09:06:24;;;;;;;5.38;4.55;;;10.00;99.90;;;;;;15474898;23;20090;-80
2023/10/26 09:12:26;;;;;;;5.60;4.30;;;9.90;99.90;;;;;;15481133;23;20024;-80
2023/10/26 09:18:28;;;;;;;5.88;4.30;;;9.90;99.90;;;;;;15504446;22;20068;-80
2023/10/26 09:24:30;;;;;;;8.98;5.43;;;10.00;99.90;;;;;;15529343;23;20024;-80
2023/10/26 09:30:33;;;;;;;7.10;4.15;;;10.00;99.90;;;;;;15543916;22;20028;-80
2023/10/26 09:36:35;;;;;;;5.60;4.68;;;10.00;99.90;;;;;;15516393;23;20024;-81
2023/10/26 09:42:37;;;;;;;5.53;4.65;;;9.90;99.90;;;;;;15517872;23;20020;-80
2023/10/26 09:48:40;;;;;;;5.97;4.97;;;10.00;99.90;;;;;;15512981;23;20034;-80
2023/10/26 09:54:44;;;;;;;5.47;4.22;;;10.10;99.90;;;;;;15499641;23;20023;-80
2023/10/26 10:00:46;;;;;;;7.22;4.97;;;10.00;99.90;;;;;;15469506;23;20114;-80
2023/10/26 10:06:53;;;;;;;6.30;4.70;;;10.00;99.90;;;;;;15461895;23;20354;-80
2023/10/26 10:12:55;;;;;;;5.65;4.57;;;10.00;99.90;;;;;;15455292;23;20020;-80
2023/10/26 10:19:16;;;;;;;5.43;4.32;;;10.10;99.90;;;;;;15488339;23;20107;-80
2023/10/26 10:25:18;;;;;;;7.32;6.15;;;10.20;99.90;;;;;;15457958;23;20028;-80
2023/10/26 10:31:23;;;;;;;7.15;5.97;;;10.10;99.90;;;;;;15459538;23;20020;-80
2023/10/26 10:37:26;;;;;;;7.53;5.82;;;10.20;99.90;;;;;;15455936;22;20123;-80
2023/10/26 10:43:46;;;;;;;7.72;5.90;;;10.30;99.90;;;;;;15461741;23;20024;-80
2023/10/26 10:49:48;;;;;;;8.18;5.63;;;10.30;99.90;;;;;;15462252;23;20027;-80
2023/10/26 10:55:50;;;;;;;7.32;5.22;;;10.20;99.90;;;;;;15454735;23;20102;-80
2023/10/26 11:02:13;;;;;;;6.15;5.20;;;10.40;99.90;;;;;;15461204;23;20171;-80
2023/10/26 11:08:21;;;;;;;8.80;6.88;;;10.20;99.90;;;;;;15460662;23;20024;-80
2023/10/26 11:14:28;;;;;;;6.75;5.82;;;10.30;99.90;;;;;;15456409;23;20023;-80
2023/10/26 11:20:42;;;;;;;8.70;6.57;;;10.30;99.90;;;;;;15485745;23;20122;-80
2023/10/26 11:27:12;;;;;;;10.93;6.25;;;10.30;99.90;;;;;;15481255;23;20094;-80
2023/10/26 11:33:39;;;;;;;10.18;8.52;;;10.50;99.90;;;;;;15454192;23;20114;-80
2023/10/26 11:39:55;;;;;;;8.00;6.95;;;10.40;99.90;;;;;;15456357;23;20071;-80
2023/10/26 11:46:05;;;;;;;10.50;7.32;;;10.40;99.90;;;;;;15465298;23;20039;-80
2023/10/26 11:52:09;;;;;;;10.45;8.65;;;10.40;99.90;;;;;;15454285;23;20078;-80
2023/10/26 11:58:12;;;;;;;9.00;7.68;;;10.40;99.90;;;;;;15479740;23;20020;-80
2023/10/26 12:04:14;;;;;;;8.70;7.07;;;10.50;99.90;;;;;;15466864;23;20789;-80
2023/10/26 12:10:18;;;;;;;9.45;6.53;;;10.50;99.90;;;;;;15459175;23;20021;-79
2023/10/26 12:16:20;;;;;;;9.33;7.47;;;10.50;99.90;;;;;;15461176;23;20070;-82
2023/10/26 12:22:22;;;;;;;9.80;8.07;;;10.70;99.90;;;;;;15461507;23;20055;-80
2023/10/26 12:28:24;;;;;;;9.00;7.38;;;10.60;99.90;;;;;;15457397;23;20027;-81
2023/10/26 12:34:31;;;;;;;9.45;7.78;;;10.60;99.90;;;;;;15464320;23;20028;-81
2023/10/26 12:40:34;;;;;;;13.52;9.52;;;10.50;99.90;;;;;;15480948;23;20042;-81
2023/10/26 12:46:36;;;;;;;10.52;8.20;;;10.50;99.90;;;;;;15459993;23;20020;-81
2023/10/26 12:52:39;;;;;;;11.57;9.23;;;10.50;99.90;;;;;;15452838;23;20083;-82
2023/10/26 12:58:43;;;;;;;13.40;8.98;;;10.50;99.90;;;;;;15483662;23;21079;-82
2023/10/26 13:04:45;;;;;;;14.35;9.40;;;10.40;99.90;;;;;;15460992;23;20354;-82
2023/10/26 13:10:47;;;;;;;13.70;9.18;;;10.40;99.90;;;;;;15454372;23;20027;-82
2023/10/26 13:16:49;;;;;;;10.68;8.10;;;10.40;99.90;;;;;;15458825;23;20150;-82
2023/10/26 13:22:59;;;;;;;10.60;8.95;;;10.40;99.90;;;;;;15483431;23;20047;-82
2023/10/26 13:29:02;;;;;;;10.80;8.95;;;10.50;99.90;;;;;;15447501;23;20027;-82
2023/10/26 13:35:04;;;;;;;11.45;9.20;;;10.50;99.90;;;;;;15460831;23;20024;-82
2023/10/26 13:41:07;;;;;;;10.63;8.55;;;10.50;99.90;;;;;;15458295;23;20058;-82
2023/10/26 13:47:09;;;;;;;10.75;8.35;;;10.60;99.90;;;;;;15457980;23;20028;-82
2023/10/26 13:53:11;;;;;;;13.15;8.88;;;10.60;99.90;;;;;;15488385;23;20162;-82
2023/10/26 13:59:13;;;;;;;12.63;10.25;;;10.60;99.90;;;;;;15455043;23;20020;-82
2023/10/26 14:05:15;;;;;;;11.32;8.80;;;10.60;99.90;;;;;;15456828;23;20024;-82
2023/10/26 14:11:31;;;;;;;10.07;8.13;;;10.60;99.90;;;;;;15463518;23;20577;-82
2023/10/26 14:17:36;;;;;;;12.63;8.07;;;10.70;99.90;;;;;;15455978;23;20020;-82
2023/10/26 14:23:38;;;;;;;12.00;7.82;;;10.50;99.90;;;;;;15484819;23;20028;-82
2023/10/26 14:29:40;;;;;;;8.18;6.80;;;10.50;99.90;;;;;;15455369;23;20468;-82
2023/10/26 14:35:42;;;;;;;8.63;6.95;;;10.60;99.90;;;;;;15454489;23;20103;-82
2023/10/26 14:41:44;;;;;;;10.82;7.70;;;10.50;99.90;;;;;;15482752;23;20106;-82
2023/10/26 14:47:46;;;;;;;10.20;6.97;;;10.40;99.90;;;;;;15456275;23;20024;-82
2023/10/26 14:53:48;;;;;;;7.28;5.63;;;10.50;99.90;;;;;;15443048;23;20097;-82
2023/10/26 14:59:50;;;;;;;7.43;6.18;;;10.50;99.90;;;;;;15475965;23;20446;-82
2023/10/26 15:05:53;;;;;;;8.00;6.10;;;10.50;99.90;;;;;;15452360;23;20166;-82
2023/10/26 15:11:56;;;;;;;9.95;7.35;;;10.50;99.90;;;;;;15454269;23;20020;-82
2023/10/26 15:17:59;;;;;;;13.73;9.23;;;10.40;99.90;;;;;;15449751;23;20044;-82
2023/10/26 15:24:01;;;;;;;9.88;8.02;;;10.20;99.90;;;;;;15458574;23;20047;-82
2023/10/26 15:30:03;;;;;;;10.43;7.68;;;10.30;99.90;;;;;;15483263;23;20358;-82
2023/10/26 15:36:05;;;;;;;9.48;7.30;;;10.20;99.90;;;;;;15478049;23;20027;-82
2023/10/26 15:42:08;;;;;;;13.00;8.65;;;10.30;99.90;;;;;;15453741;23;20478;-82
2023/10/26 15:48:10;;;;;;;8.75;6.72;;;10.40;99.90;;;;;;15454272;23;20024;-82
2023/10/26 15:54:12;;;;;;;9.10;6.90;;;10.30;99.90;;;;;;15477318;23;20024;-82
2023/10/26 16:00:15;;;;;;;9.88;7.80;;;10.30;99.90;;;;;;15486280;23;20103;-82
2023/10/26 16:06:18;;;;;;;11.35;8.90;;;10.30;99.90;;;;;;15447459;23;20338;-82
2023/10/26 16:12:22;;;;;;;11.80;8.27;;;10.20;99.90;;;;;;15482734;23;20472;-82
2023/10/26 16:18:24;;;;;;;12.73;7.72;;;9.90;99.90;;;;;;15452616;23;20016;-82
2023/10/26 16:24:26;;;;;;;8.90;6.90;;;9.90;99.90;;;;;;15482304;23;20115;-82
2023/10/26 16:30:28;;;;;;;14.10;11.55;;;10.00;99.90;;;;;;15453350;23;20438;-82
2023/10/26 16:36:30;;;;;;;15.05;10.68;;;10.10;99.90;;;;;;15453179;23;20027;-82
2023/10/26 16:42:33;;;;;;;11.80;8.70;;;9.90;99.90;;;;;;15486351;23;20028;-83
2023/10/26 16:48:35;;;;;;;13.68;8.27;;;9.80;99.90;;;;;;15454322;23;20024;-82
2023/10/26 16:54:37;;;;;;;10.57;8.45;;;9.90;99.90;;;;;;15481367;23;20024;-83
2023/10/26 17:00:41;;;;;;;14.38;9.48;;;10.00;99.90;;;;;;15462041;23;20043;-82
2023/10/26 17:06:43;;;;;;;11.50;8.87;;;9.90;99.90;;;;;;15487419;23;20036;-82
2023/10/26 17:12:45;;;;;;;12.65;9.05;;;10.00;99.90;;;;;;15451922;23;20024;-82
2023/10/26 17:18:48;;;;;;;15.00;11.55;;;10.00;99.90;;;;;;15460071;23;20166;-82
2023/10/26 17:24:49;;;;;;;15.73;11.50;;;10.00;99.90;;;;;;15487162;23;20074;-83
2023/10/26 17:30:51;;;;;;;14.40;10.80;;;10.00;99.90;;;;;;15449229;23;20459;-82
2023/10/26 17:36:53;;;;;;;12.02;8.93;;;10.00;99.90;;;;;;15478400;23;20043;-82
2023/10/26 17:42:55;;;;;;;13.73;11.20;;;10.10;99.90;;;;;;15462255;23;20099;-82
2023/10/26 17:48:57;;;;;;;13.77;10.73;;;10.10;99.90;;;;;;15464524;23;20027;-83
2023/10/26 17:54:59;;;;;;;17.65;12.30;;;10.00;99.90;;;;;;15466593;23;20024;-82
2023/10/26 18:01:05;;;;;;;17.05;11.38;;;9.90;99.90;;;;;;15496229;23;20032;-82
2023/10/26 18:07:07;;;;;;;17.58;12.65;;;9.90;99.90;;;;;;15465115;23;20135;-82
2023/10/26 18:13:09;;;;;;;16.88;11.90;;;9.90;99.90;;;;;;15462570;23;20362;-82
2023/10/26 18:19:11;;;;;;;19.42;13.00;;;9.90;99.90;;;;;;15486389;23;20047;-82
2023/10/26 18:25:13;;;;;;;15.85;11.00;;;9.90;99.90;;;;;;15456514;23;20345;-82
2023/10/26 18:31:17;;;;;;;17.13;12.43;;;10.00;99.90;;;;;;15470557;23;20099;-82
2023/10/26 18:37:20;;;;;;;19.33;13.13;;;9.90;99.90;;;;;;15459984;22;20020;-82
2023/10/26 18:43:24;;;;;;;19.70;13.02;;;9.80;99.90;;;;;;15483432;23;20032;-82
2023/10/26 18:49:27;;;;;;;17.03;12.53;;;9.80;99.90;;;;;;15455088;23;20517;-82
2023/10/26 18:55:35;;;;;;;20.55;14.60;;;9.70;99.90;;;;;;15452250;23;20024;-82
2023/10/26 19:01:37;;;;;;;16.33;12.25;;;9.80;99.90;;;;;;15452724;23;20031;-83
2023/10/26 19:07:39;;;;;;;19.38;13.40;;;9.80;99.90;;;;;;15454586;23;20113;-82
2023/10/26 19:13:41;;;;;;;18.42;13.02;;;9.80;99.90;;;;;;15449257;23;20020;-83
2023/10/26 19:19:43;;;;;;;20.23;13.23;;;9.80;99.90;;;;;;15454160;23;20028;-82
2023/10/26 19:25:46;;;;;;;16.42;11.40;;;9.80;99.90;;;;;;15453183;23;20024;-82
2023/10/26 19:31:48;;;;;;;19.83;13.20;;;9.80;99.90;;;;;;15451432;23;20107;-83
2023/10/26 19:37:50;;;;;;;15.80;11.82;;;9.80;99.90;;;;;;15454404;22;20513;-82
2023/10/26 19:43:52;;;;;;;20.75;14.63;;;9.90;99.90;;;;;;15459289;23;20349;-82
2023/10/26 19:49:54;;;;;;;21.77;14.43;;;9.90;99.90;;;;;;15455467;23;20024;-82
2023/10/26 19:55:56;;;;;;;19.65;13.23;;;9.80;99.90;;;;;;15482770;23;20031;-82
2023/10/26 20:01:59;;;;;;;17.23;11.85;;;9.70;99.90;;;;;;15452235;23;20102;-82
2023/10/26 20:08:01;;;;;;;20.45;14.15;;;9.70;99.90;;;;;;15457993;23;20095;-82
2023/10/26 20:14:03;;;;;;;18.45;12.85;;;9.50;99.90;;;;;;15482877;23;20020;-83
2023/10/26 20:20:06;;;;;;;21.45;14.10;;;9.70;99.90;;;;;;15459786;23;20035;-82
2023/10/26 20:26:08;;;;;;;19.55;12.95;;;9.70;99.90;;;;;;15487133;23;20024;-82
2023/10/26 20:32:10;;;;;;;19.05;12.82;;;9.80;99.90;;;;;;15481943;23;20020;-82
2023/10/26 20:38:12;;;;;;;21.73;12.93;;;9.80;99.90;;;;;;15452797;23;20028;-82
2023/10/26 20:44:15;;;;;;;37.38;14.55;;;9.70;99.90;;;;;;15490720;23;20028;-83
2023/10/26 20:50:17;;;;;;;28.00;14.23;;;9.70;99.90;;;;;;15481533;23;20020;-82
2023/10/26 20:56:19;;;;;;;21.58;11.68;;;9.70;99.90;;;;;;15447534;23;20031;-82
2023/10/26 21:02:21;;;;;;;17.17;12.13;;;9.60;99.90;;;;;;15486142;23;20539;-82
2023/10/26 21:08:23;;;;;;;21.88;14.50;;;9.50;99.90;;;;;;15463203;23;21071;-83
2023/10/26 21:14:25;;;;;;;25.60;14.55;;;9.50;99.90;;;;;;15461351;23;20035;-82
2023/10/26 21:20:27;;;;;;;19.20;13.10;;;9.50;99.90;;;;;;15450410;23;20031;-82
2023/10/26 21:26:29;;;;;;;25.55;17.98;;;9.50;99.90;;;;;;15453174;23;20039;-82
2023/10/26 21:32:31;;;;;;;24.48;15.93;;;9.50;99.90;;;;;;15455009;23;20031;-82
2023/10/26 21:38:33;;;;;;;28.17;16.90;;;9.50;99.90;;;;;;15480443;23;20156;-82
2023/10/26 21:44:35;;;;;;;27.50;16.60;;;9.50;99.90;;;;;;15461293;23;20028;-82
2023/10/26 21:50:37;;;;;;;26.85;15.40;;;9.60;99.90;;;;;;15451636;23;20027;-82
2023/10/26 21:56:39;;;;;;;32.22;17.08;;;9.70;99.90;;;;;;15472931;23;20024;-82
2023/10/26 22:02:42;;;;;;;28.65;16.13;;;9.60;99.90;;;;;;15456368;23;20353;-82
2023/10/26 22:08:44;;;;;;;27.80;15.38;;;9.40;99.90;;;;;;15480002;23;20028;-82
2023/10/26 22:14:46;;;;;;;26.65;15.45;;;9.30;99.90;;;;;;15453019;23;20058;-82
2023/10/26 22:20:48;;;;;;;26.35;16.05;;;9.30;99.90;;;;;;15484036;23;20037;-82
2023/10/26 22:26:51;;;;;;;26.92;15.15;;;9.20;99.90;;;;;;15454204;23;20024;-82
2023/10/26 22:32:53;;;;;;;28.30;16.10;;;9.10;99.90;;;;;;15452846;23;20024;-82
2023/10/26 22:38:55;;;;;;;28.67;16.05;;;9.30;99.90;;;;;;15478376;23;20024;-82
2023/10/26 22:44:57;;;;;;;25.55;14.65;;;9.20;99.90;;;;;;15458621;23;20028;-82
2023/10/26 22:51:00;;;;;;;34.88;18.25;;;9.40;99.90;;;;;;15452208;23;20024;-82
2023/10/26 22:57:02;;;;;;;31.70;16.27;;;9.00;99.90;;;;;;15448197;23;20020;-82
2023/10/26 23:03:05;;;;;;;30.25;16.80;;;9.30;99.90;;;;;;15458081;23;20032;-82
2023/10/26 23:09:07;;;;;;;28.70;15.75;;;9.20;99.90;;;;;;15475774;23;20028;-82
2023/10/26 23:15:09;;;;;;;28.83;16.27;;;9.00;99.90;;;;;;15440927;23;20027;-82
2023/10/26 23:21:12;;;;;;;30.95;17.15;;;8.90;99.90;;;;;;15459329;23;20031;-82
2023/10/26 23:27:15;;;;;;;36.30;17.75;;;9.00;99.90;;;;;;15445826;23;20102;-82
2023/10/26 23:33:17;;;;;;;26.20;15.55;;;9.20;99.90;;;;;;15449514;23;20107;-82
2023/10/26 23:39:19;;;;;;;27.60;15.98;;;8.90;99.90;;;;;;15458473;23;20048;-82
2023/10/26 23:45:21;;;;;;;29.98;16.45;;;8.80;99.90;;;;;;15464964;23;20086;-82
2023/10/26 23:51:23;;;;;;;27.65;15.20;;;8.80;99.90;;;;;;15448121;23;20636;-82
2023/10/26 23:57:24;;;;;;;30.25;16.40;;;8.80;99.90;;;;;;15460563;23;20024;-82
